createdAt,value
2019-03-13T00:02:22.598Z,3.30
2019-03-13T00:04:53.037Z,3.30
2019-03-13T00:07:23.751Z,3.30
2019-03-13T00:09:54.106Z,3.20
2019-03-13T00:12:24.936Z,3.20
2019-03-13T00:14:55.859Z,3.20
2019-03-13T00:17:26.482Z,3.10
2019-03-13T00:19:57.475Z,3.10
2019-03-13T00:22:27.847Z,3.20
2019-03-13T00:24:58.395Z,3.10
2019-03-13T00:27:28.775Z,3.10
2019-03-13T00:29:59.675Z,3.10
2019-03-13T00:32:30.084Z,3.10
2019-03-13T00:35:00.733Z,3.00
2019-03-13T00:37:31.149Z,3.00
2019-03-13T00:40:01.702Z,3.10
2019-03-13T00:42:32.160Z,3.00
2019-03-13T00:45:02.487Z,3.00
2019-03-13T00:47:33.068Z,3.00
2019-03-13T00:50:03.830Z,3.00
2019-03-13T00:52:34.247Z,3.00
2019-03-13T00:55:04.900Z,2.90
2019-03-13T00:57:35.421Z,2.90
2019-03-13T01:00:06.740Z,2.90
2019-03-13T01:02:39.507Z,2.90
2019-03-13T01:05:23.268Z,2.80
2019-03-13T01:07:53.857Z,2.80
2019-03-13T01:10:24.359Z,2.80
2019-03-13T01:12:54.933Z,2.80
2019-03-13T01:15:25.380Z,2.80
2019-03-13T01:17:55.944Z,2.80
2019-03-13T01:20:26.749Z,2.80
2019-03-13T01:22:57.092Z,2.60
2019-03-13T01:25:27.655Z,2.80
2019-03-13T01:27:58.068Z,2.70
2019-03-13T01:30:30.692Z,2.70
2019-03-13T01:33:06.339Z,2.70
2019-03-13T01:35:49.834Z,2.70
2019-03-13T01:38:20.185Z,2.70
2019-03-13T01:40:50.586Z,2.60
2019-03-13T01:43:20.955Z,2.60
2019-03-13T01:45:51.418Z,2.60
2019-03-13T01:48:21.943Z,2.60
2019-03-13T01:50:52.459Z,2.50
2019-03-13T01:53:22.802Z,2.60
2019-03-13T01:55:53.417Z,2.50
2019-03-13T01:58:23.947Z,2.40
2019-03-13T02:00:54.464Z,2.40
2019-03-13T02:03:24.986Z,2.40
2019-03-13T02:05:55.503Z,2.30
2019-03-13T02:08:26.183Z,2.30
2019-03-13T02:10:56.552Z,2.20
2019-03-13T02:13:26.987Z,2.20
2019-03-13T02:15:57.436Z,2.20
2019-03-13T02:18:27.943Z,2.10
2019-03-13T02:20:59.615Z,2.10
2019-03-13T02:23:30.113Z,2.10
2019-03-13T02:26:00.484Z,2.00
2019-03-13T02:28:30.919Z,1.90
2019-03-13T02:31:01.244Z,1.80
2019-03-13T02:33:31.745Z,1.80
2019-03-13T02:36:03.286Z,1.80
2019-03-13T02:38:33.679Z,1.80
2019-03-13T02:41:04.596Z,1.70
2019-03-13T02:43:35.072Z,1.60
2019-03-13T02:46:05.875Z,1.60
2019-03-13T02:48:36.298Z,1.60
2019-03-13T02:51:07.145Z,1.60
2019-03-13T02:53:37.664Z,1.70
2019-03-13T02:56:08.114Z,1.80
2019-03-13T02:58:38.777Z,1.70
2019-03-13T03:01:18.738Z,1.70
2019-03-13T03:03:52.168Z,1.60
2019-03-13T03:06:22.624Z,1.50
2019-03-13T03:08:53.193Z,1.60
2019-03-13T03:11:23.610Z,1.60
2019-03-13T03:13:54.119Z,1.60
2019-03-13T03:16:24.590Z,1.70
2019-03-13T03:18:55.036Z,1.70
2019-03-13T03:21:25.575Z,1.70
2019-03-13T03:23:56.073Z,1.80
2019-03-13T03:26:26.393Z,1.70
2019-03-13T03:28:56.799Z,1.70
2019-03-13T03:31:27.145Z,1.70
2019-03-13T03:34:01.870Z,1.60
2019-03-13T03:36:32.563Z,1.60
2019-03-13T03:39:04.615Z,1.70
2019-03-13T03:41:36.688Z,1.70
2019-03-13T03:44:07.446Z,1.80
2019-03-13T03:46:37.920Z,1.70
2019-03-13T03:49:08.711Z,1.70
2019-03-13T03:51:39.218Z,1.70
2019-03-13T03:54:10.158Z,1.60
2019-03-13T03:56:40.619Z,1.70
2019-03-13T03:59:11.168Z,1.70
2019-03-13T04:01:41.664Z,1.70
2019-03-13T04:04:13.207Z,1.60
2019-03-13T04:06:43.773Z,1.60
2019-03-13T04:09:14.250Z,1.60
2019-03-13T04:11:44.686Z,1.80
2019-03-13T04:14:15.441Z,1.90
2019-03-13T04:16:45.899Z,2.00
2019-03-13T04:19:16.282Z,2.10
2019-03-13T04:21:47.094Z,2.10
2019-03-13T04:24:17.595Z,2.20
2019-03-13T04:26:49.100Z,2.20
2019-03-13T04:29:19.623Z,2.20
2019-03-13T04:31:50.003Z,2.20
2019-03-13T04:34:20.468Z,2.20
2019-03-13T04:36:51.017Z,2.20
2019-03-13T04:39:21.627Z,2.20
2019-03-13T04:41:50.908Z,2.20
2019-03-13T04:44:20.356Z,2.30
2019-03-13T04:46:49.681Z,2.30
2019-03-13T04:49:18.999Z,2.30
2019-03-13T04:51:48.544Z,2.40
2019-03-13T04:54:17.788Z,2.40
2019-03-13T04:56:46.938Z,2.50
2019-03-13T04:59:16.170Z,2.50
2019-03-13T05:01:45.354Z,2.50
2019-03-13T05:04:14.724Z,2.60
2019-03-13T05:06:44.027Z,2.60
2019-03-13T05:09:14.435Z,2.70
2019-03-13T05:11:43.767Z,2.70
2019-03-13T05:14:13.265Z,2.80
2019-03-13T05:16:42.602Z,2.70
2019-03-13T05:19:12.128Z,2.50
2019-03-13T05:21:41.351Z,2.90
2019-03-13T05:24:12.226Z,2.90
2019-03-13T05:26:41.586Z,2.90
2019-03-13T05:29:11.076Z,2.90
2019-03-13T05:31:40.527Z,3.00
2019-03-13T05:34:09.842Z,3.00
2019-03-13T05:36:39.616Z,3.00
2019-03-13T05:39:08.945Z,3.10
2019-03-13T05:41:38.363Z,3.10
2019-03-13T05:44:07.759Z,3.10
2019-03-13T05:46:36.951Z,3.10
2019-03-13T05:49:06.189Z,3.10
2019-03-13T05:51:35.478Z,3.10
2019-03-13T05:54:05.026Z,3.20
2019-03-13T05:56:34.315Z,3.20
2019-03-13T05:59:03.783Z,3.20
2019-03-13T06:01:33.164Z,3.30
2019-03-13T06:04:02.386Z,3.30
2019-03-13T06:06:31.719Z,3.40
2019-03-13T06:09:00.801Z,3.40
2019-03-13T06:11:30.671Z,3.50
2019-03-13T06:13:59.831Z,3.50
2019-03-13T06:16:29.120Z,3.50
2019-03-13T06:18:58.432Z,3.50
2019-03-13T06:21:27.699Z,3.50
2019-03-13T06:24:05.053Z,3.50
2019-03-13T06:26:30.431Z,3.50
2019-03-13T06:28:59.632Z,3.60
2019-03-13T06:31:29.044Z,3.70
2019-03-13T06:33:58.283Z,3.80
2019-03-13T06:36:27.612Z,3.80
2019-03-13T06:38:57.011Z,3.90
2019-03-13T06:41:26.367Z,4.00
2019-03-13T06:43:55.683Z,4.00
2019-03-13T06:46:25.043Z,4.10
2019-03-13T06:48:54.388Z,4.20
2019-03-13T06:51:23.683Z,4.20
2019-03-13T06:53:52.867Z,4.20
2019-03-13T06:56:22.335Z,4.30
2019-03-13T06:59:06.131Z,4.50
2019-03-13T07:01:59.932Z,4.50
2019-03-13T07:04:54.379Z,4.60
2019-03-13T07:07:42.635Z,4.60
2019-03-13T07:10:44.118Z,4.50
2019-03-13T07:13:38.404Z,4.50
2019-03-13T07:16:35.687Z,4.60
2019-03-13T07:19:22.590Z,4.60
2019-03-13T07:22:09.369Z,4.50
2019-03-13T07:24:52.950Z,4.50
2019-03-13T07:27:51.123Z,4.70
2019-03-13T07:30:42.077Z,4.70
2019-03-13T07:33:29.107Z,4.80
2019-03-13T07:36:17.596Z,4.90
2019-03-13T07:38:59.644Z,5.00
2019-03-13T07:41:37.040Z,5.00
2019-03-13T07:44:23.866Z,5.10
2019-03-13T07:47:30.485Z,5.20
2019-03-13T07:50:30.791Z,5.10
2019-03-13T07:53:19.023Z,5.20
2019-03-13T07:55:57.767Z,5.30
2019-03-13T07:58:33.647Z,5.30
2019-03-13T08:01:21.089Z,5.40
2019-03-13T08:04:05.597Z,5.50
2019-03-13T08:06:59.868Z,5.50
2019-03-13T08:09:40.718Z,5.30
2019-03-13T08:12:24.507Z,5.30
2019-03-13T08:15:11.304Z,5.30
2019-03-13T08:17:57.112Z,5.20
2019-03-13T08:20:51.254Z,5.10
2019-03-13T08:23:31.006Z,5.00
2019-03-13T08:26:26.182Z,5.00
2019-03-13T08:29:10.315Z,5.00
2019-03-13T08:31:52.675Z,5.00
2019-03-13T08:34:35.596Z,5.00
2019-03-13T08:37:22.506Z,5.20
2019-03-13T08:40:10.934Z,5.20
2019-03-13T08:42:57.565Z,5.20
2019-03-13T08:45:57.767Z,5.20
2019-03-13T08:48:48.883Z,5.20
2019-03-13T08:51:46.010Z,5.30
2019-03-13T08:54:35.279Z,5.30
2019-03-13T08:57:23.635Z,5.30
2019-03-13T09:00:10.379Z,5.30
2019-03-13T09:02:50.220Z,5.30
2019-03-13T09:05:44.280Z,5.30
2019-03-13T09:08:31.189Z,5.40
2019-03-13T09:11:21.651Z,5.40
2019-03-13T09:14:10.095Z,5.40
2019-03-13T09:16:49.167Z,5.40
2019-03-13T09:19:29.385Z,5.50
2019-03-13T09:22:16.354Z,5.60
2019-03-13T09:25:12.609Z,5.50
2019-03-13T09:28:00.654Z,5.40
2019-03-13T09:30:39.423Z,5.40
2019-03-13T09:33:21.056Z,5.50
2019-03-13T09:35:58.967Z,5.50
2019-03-13T09:38:34.011Z,5.50
2019-03-13T09:41:23.234Z,5.40
2019-03-13T09:44:09.960Z,5.40
2019-03-13T09:46:58.332Z,5.30
2019-03-13T09:49:52.635Z,5.20
2019-03-13T09:52:49.999Z,5.10
2019-03-13T09:55:50.299Z,5.20
2019-03-13T09:58:38.039Z,5.20
2019-03-13T10:01:28.979Z,5.10
2019-03-13T10:04:17.265Z,5.20
2019-03-13T10:06:53.515Z,5.40
2019-03-13T10:09:28.421Z,5.50
2019-03-13T10:12:19.620Z,5.50
2019-03-13T10:15:10.975Z,5.50
2019-03-13T10:17:59.021Z,5.40
2019-03-13T10:20:41.495Z,5.50
2019-03-13T10:23:30.067Z,5.60
2019-03-13T10:26:10.063Z,5.60
2019-03-13T10:29:01.039Z,5.60
2019-03-13T10:31:58.726Z,5.90
2019-03-13T10:34:52.127Z,5.80
2019-03-13T10:37:40.384Z,5.80
2019-03-13T10:40:27.365Z,5.80
2019-03-13T10:43:13.311Z,5.70
2019-03-13T10:45:58.451Z,5.70
2019-03-13T10:48:53.279Z,5.70
2019-03-13T10:51:50.655Z,5.90
2019-03-13T10:54:49.789Z,5.90
2019-03-13T10:57:31.974Z,5.90
2019-03-13T11:00:11.924Z,5.90
2019-03-13T11:03:03.515Z,5.90
2019-03-13T11:05:50.591Z,5.90
2019-03-13T11:08:42.003Z,6.00
2019-03-13T11:11:16.851Z,6.10
2019-03-13T11:14:14.731Z,5.90
2019-03-13T11:16:45.014Z,5.90
2019-03-13T11:19:35.755Z,5.90
2019-03-13T11:22:35.707Z,6.00
2019-03-13T11:25:24.527Z,5.80
2019-03-13T11:28:24.719Z,5.80
2019-03-13T11:31:13.104Z,5.70
2019-03-13T11:34:01.515Z,5.70
2019-03-13T11:37:01.680Z,5.80
2019-03-13T11:39:52.947Z,5.70
2019-03-13T11:42:47.306Z,5.70
2019-03-13T11:45:28.073Z,5.60
2019-03-13T11:48:21.736Z,5.60
2019-03-13T11:51:28.003Z,5.60
2019-03-13T11:54:12.039Z,5.60
2019-03-13T11:57:06.374Z,5.60
2019-03-13T12:00:09.803Z,5.70
2019-03-13T12:02:49.171Z,5.70
2019-03-13T12:05:25.863Z,5.70
2019-03-13T12:08:20.599Z,5.70
2019-03-13T12:11:18.050Z,5.90
2019-03-13T12:14:04.920Z,6.00
2019-03-13T12:16:53.259Z,6.00
2019-03-13T12:19:41.622Z,6.00
2019-03-13T12:22:28.741Z,6.10
2019-03-13T12:25:25.855Z,6.20
2019-03-13T12:28:04.818Z,6.40
2019-03-13T12:31:05.138Z,6.40
2019-03-13T12:33:51.363Z,6.50
2019-03-13T12:36:27.708Z,6.40
2019-03-13T12:39:16.107Z,6.30
2019-03-13T12:42:02.696Z,6.20
2019-03-13T12:44:50.898Z,6.10
2019-03-13T12:47:37.731Z,6.20
2019-03-13T12:50:35.961Z,6.20
2019-03-13T12:53:36.566Z,6.10
2019-03-13T12:56:23.420Z,6.10
2019-03-13T12:59:05.639Z,6.00
2019-03-13T13:01:53.959Z,6.00
2019-03-13T13:04:51.058Z,6.10
2019-03-13T13:07:42.366Z,6.00
2019-03-13T13:10:33.727Z,6.20
2019-03-13T13:13:11.850Z,6.30
2019-03-13T13:16:06.871Z,6.30
2019-03-13T13:18:53.349Z,6.20
2019-03-13T13:21:22.843Z,6.30
2019-03-13T13:23:52.089Z,6.40
2019-03-13T13:26:21.511Z,6.40
2019-03-13T13:28:50.823Z,6.40
2019-03-13T13:31:20.079Z,6.40
2019-03-13T13:33:49.426Z,6.40
2019-03-13T13:36:19.696Z,6.50
2019-03-13T13:38:48.955Z,6.50
2019-03-13T13:41:18.189Z,6.40
2019-03-13T13:43:48.344Z,6.30
2019-03-13T13:46:19.051Z,6.20
2019-03-13T13:48:48.459Z,6.10
2019-03-13T13:51:17.623Z,6.10
2019-03-13T13:53:46.950Z,6.10
2019-03-13T13:56:16.172Z,6.10
2019-03-13T13:58:45.684Z,6.20
2019-03-13T14:01:14.830Z,6.20
2019-03-13T14:03:44.183Z,6.20
2019-03-13T14:06:13.501Z,6.10
2019-03-13T14:08:42.668Z,6.10
2019-03-13T14:11:11.850Z,6.10
2019-03-13T14:13:41.120Z,6.00
2019-03-13T14:16:10.703Z,6.00
2019-03-13T14:18:39.971Z,6.00
2019-03-13T14:21:09.379Z,6.00
2019-03-13T14:23:38.787Z,6.00
2019-03-13T14:26:08.133Z,5.90
2019-03-13T14:28:37.296Z,5.90
2019-03-13T14:31:06.455Z,6.00
2019-03-13T14:33:36.661Z,6.00
2019-03-13T14:36:05.808Z,6.10
2019-03-13T14:38:35.603Z,6.20
2019-03-13T14:41:04.798Z,6.20
2019-03-13T14:43:34.643Z,6.20
2019-03-13T14:46:03.852Z,6.10
2019-03-13T14:48:33.123Z,6.10
2019-03-13T14:51:02.860Z,6.00
2019-03-13T14:53:32.051Z,6.10
2019-03-13T14:56:02.739Z,6.10
2019-03-13T14:58:34.918Z,6.00
2019-03-13T15:01:05.208Z,6.00
2019-03-13T15:03:35.151Z,6.00
2019-03-13T15:06:06.125Z,6.00
2019-03-13T15:08:35.413Z,6.00
2019-03-13T15:11:04.567Z,6.00
2019-03-13T15:13:33.783Z,6.00
2019-03-13T15:16:02.977Z,6.00
2019-03-13T15:18:33.429Z,6.00
2019-03-13T15:21:08.923Z,6.00
2019-03-13T15:23:44.460Z,6.00
2019-03-13T15:26:13.706Z,6.00
2019-03-13T15:28:43.827Z,6.00
2019-03-13T15:31:13.027Z,6.00
2019-03-13T15:33:42.195Z,6.00
2019-03-13T15:36:11.499Z,5.90
2019-03-13T15:38:40.700Z,5.90
2019-03-13T15:41:11.921Z,5.90
2019-03-13T15:43:41.194Z,5.90
2019-03-13T15:46:10.588Z,5.90
2019-03-13T15:48:39.757Z,5.90
2019-03-13T15:51:10.095Z,5.90
2019-03-13T15:53:43.031Z,5.90
2019-03-13T15:56:14.095Z,5.80
2019-03-13T15:58:43.299Z,5.80
2019-03-13T16:01:12.530Z,5.90
2019-03-13T16:03:41.828Z,5.90
2019-03-13T16:06:11.215Z,5.80
2019-03-13T16:08:41.007Z,5.80
2019-03-13T16:11:10.183Z,5.80
2019-03-13T16:13:39.463Z,5.80
2019-03-13T16:16:09.618Z,5.80
2019-03-13T16:18:39.055Z,5.70
2019-03-13T16:21:09.239Z,5.70
2019-03-13T16:23:38.579Z,5.70
2019-03-13T16:26:07.771Z,5.70
2019-03-13T16:28:36.943Z,5.60
2019-03-13T16:31:06.708Z,5.60
2019-03-13T16:33:36.003Z,5.60
2019-03-13T16:36:05.237Z,5.60
2019-03-13T16:38:34.674Z,5.60
2019-03-13T16:41:03.891Z,5.60
2019-03-13T16:43:33.131Z,5.60
2019-03-13T16:46:02.254Z,5.60
2019-03-13T16:48:31.420Z,5.60
2019-03-13T16:51:00.636Z,5.60
2019-03-13T16:53:29.855Z,5.60
2019-03-13T16:55:59.154Z,5.60
2019-03-13T16:58:28.456Z,5.60
2019-03-13T17:00:57.709Z,5.60
2019-03-13T17:03:26.876Z,5.50
2019-03-13T17:05:56.195Z,5.50
2019-03-13T17:08:25.504Z,5.50
2019-03-13T17:10:54.864Z,5.50
2019-03-13T17:13:24.083Z,5.50
2019-03-13T17:15:53.351Z,5.50
2019-03-13T17:18:22.647Z,5.50
2019-03-13T17:20:51.799Z,5.50
2019-03-13T17:23:21.010Z,5.50
2019-03-13T17:25:50.279Z,5.50
2019-03-13T17:28:19.463Z,5.50
2019-03-13T17:30:49.807Z,5.50
2019-03-13T17:33:19.031Z,5.50
2019-03-13T17:35:48.170Z,5.50
2019-03-13T17:38:17.450Z,5.60
2019-03-13T17:40:46.688Z,5.60
2019-03-13T17:43:16.955Z,5.60
2019-03-13T17:45:46.187Z,5.60
2019-03-13T17:48:16.435Z,5.60
2019-03-13T17:50:45.607Z,5.60
2019-03-13T17:53:14.982Z,5.60
2019-03-13T17:55:44.672Z,5.60
2019-03-13T17:58:13.992Z,5.60
2019-03-13T18:00:46.739Z,5.50
2019-03-13T18:03:16.059Z,5.60
2019-03-13T18:05:46.527Z,5.60
2019-03-13T18:08:15.779Z,5.60
2019-03-13T18:10:47.751Z,5.50
2019-03-13T18:13:17.184Z,5.60
2019-03-13T18:15:47.339Z,5.50
2019-03-13T18:18:16.631Z,5.50
2019-03-13T18:20:46.267Z,5.50
2019-03-13T18:23:15.495Z,5.50
2019-03-13T18:25:45.011Z,5.50
2019-03-13T18:28:14.347Z,5.50
2019-03-13T18:30:49.055Z,5.50
2019-03-13T18:33:18.350Z,5.50
2019-03-13T18:35:48.615Z,5.50
2019-03-13T18:38:18.043Z,5.50
2019-03-13T18:40:47.771Z,5.50
2019-03-13T18:43:16.966Z,5.50
2019-03-13T18:45:46.453Z,5.50
2019-03-13T18:48:15.679Z,5.60
2019-03-13T18:50:48.989Z,5.50
2019-03-13T18:53:20.003Z,5.50
2019-03-13T18:55:49.960Z,5.50
2019-03-13T18:58:20.292Z,5.50
2019-03-13T19:00:51.490Z,5.60
2019-03-13T19:03:21.521Z,5.60
2019-03-13T19:05:50.807Z,5.50
2019-03-13T19:08:20.067Z,5.50
2019-03-13T19:10:49.623Z,5.50
2019-03-13T19:13:18.926Z,5.60
2019-03-13T19:15:48.602Z,5.50
2019-03-13T19:18:17.830Z,5.50
2019-03-13T19:20:47.443Z,5.60
2019-03-13T19:23:16.528Z,5.60
2019-03-13T19:25:45.787Z,5.60
2019-03-13T19:28:15.135Z,5.60
2019-03-13T19:30:44.492Z,5.60
2019-03-13T19:33:13.868Z,5.60
2019-03-13T19:35:43.169Z,5.60
2019-03-13T19:38:12.444Z,5.70
2019-03-13T19:40:41.686Z,5.70
2019-03-13T19:43:10.991Z,5.70
2019-03-13T19:45:40.811Z,5.70
2019-03-13T19:48:10.120Z,5.70
2019-03-13T19:50:39.396Z,5.70
2019-03-13T19:53:08.631Z,5.70
2019-03-13T19:55:37.911Z,5.70
2019-03-13T19:58:07.695Z,5.70
2019-03-13T20:00:37.074Z,5.70
2019-03-13T20:03:06.582Z,5.70
2019-03-13T20:05:45.409Z,5.80
2019-03-13T20:08:06.752Z,5.80
2019-03-13T20:10:36.001Z,5.80
2019-03-13T20:13:05.476Z,5.80
2019-03-13T20:15:34.659Z,5.80
2019-03-13T20:18:04.259Z,5.80
2019-03-13T20:20:33.489Z,5.80
2019-03-13T20:23:02.845Z,5.90
2019-03-13T20:25:32.247Z,5.90
2019-03-13T20:28:01.507Z,5.90
2019-03-13T20:30:30.707Z,5.90
2019-03-13T20:32:59.863Z,5.80
2019-03-13T20:35:29.158Z,5.80
2019-03-13T20:37:58.402Z,5.90
2019-03-13T20:40:27.757Z,5.80
2019-03-13T20:42:57.019Z,5.80
2019-03-13T20:45:26.369Z,5.80
2019-03-13T20:47:55.630Z,5.80
2019-03-13T20:50:35.656Z,5.80
2019-03-13T20:52:55.931Z,5.80
2019-03-13T20:55:25.170Z,5.90
2019-03-13T20:57:54.348Z,5.90
2019-03-13T21:00:23.774Z,5.90
2019-03-13T21:02:53.359Z,5.90
2019-03-13T21:05:22.600Z,5.90
2019-03-13T21:07:52.053Z,5.90
2019-03-13T21:10:21.407Z,5.90
2019-03-13T21:12:50.790Z,6.00
2019-03-13T21:15:20.254Z,6.00
2019-03-13T21:17:50.740Z,6.00
2019-03-13T21:20:20.066Z,6.00
2019-03-13T21:22:49.315Z,5.90
2019-03-13T21:25:18.532Z,6.00
2019-03-13T21:27:48.327Z,5.90
2019-03-13T21:30:18.986Z,5.90
2019-03-13T21:32:48.527Z,6.00
2019-03-13T21:35:17.743Z,6.00
2019-03-13T21:37:47.043Z,6.00
2019-03-13T21:40:16.427Z,6.00
2019-03-13T21:42:45.587Z,6.00
2019-03-13T21:45:22.579Z,6.00
2019-03-13T21:47:46.019Z,6.00
2019-03-13T21:50:15.598Z,6.10
2019-03-13T21:52:44.839Z,6.10
2019-03-13T21:55:14.151Z,6.10
2019-03-13T21:57:43.355Z,6.10
2019-03-13T22:00:14.583Z,6.20
2019-03-13T22:02:44.327Z,6.20
2019-03-13T22:05:25.152Z,6.20
2019-03-13T22:07:44.772Z,6.10
2019-03-13T22:10:14.276Z,6.10
2019-03-13T22:12:43.543Z,6.10
2019-03-13T22:15:13.551Z,6.20
2019-03-13T22:17:42.878Z,6.20
2019-03-13T22:20:12.975Z,6.20
2019-03-13T22:22:42.263Z,6.20
2019-03-13T22:25:11.709Z,6.20
2019-03-13T22:27:40.881Z,6.20
2019-03-13T22:30:12.111Z,6.20
2019-03-13T22:32:41.383Z,6.20
2019-03-13T22:35:10.619Z,6.20
2019-03-13T22:37:40.214Z,6.30
2019-03-13T22:40:09.721Z,6.20
2019-03-13T22:42:38.923Z,6.30
2019-03-13T22:45:08.542Z,6.20
2019-03-13T22:47:43.081Z,6.20
2019-03-13T22:50:10.720Z,6.30
2019-03-13T22:52:40.071Z,6.20
2019-03-13T22:55:09.507Z,6.20
2019-03-13T22:57:38.730Z,6.20
2019-03-13T23:00:12.435Z,6.10
2019-03-13T23:02:43.431Z,6.10
2019-03-13T23:05:12.715Z,6.10
2019-03-13T23:07:42.097Z,6.10
2019-03-13T23:10:23.441Z,6.10
2019-03-13T23:12:52.679Z,6.10
2019-03-13T23:15:21.897Z,6.10
2019-03-13T23:17:51.320Z,6.20
2019-03-13T23:20:21.517Z,6.20
2019-03-13T23:22:50.813Z,6.20
2019-03-13T23:25:20.187Z,6.20
2019-03-13T23:27:49.543Z,6.20
2019-03-13T23:30:19.671Z,6.20
2019-03-13T23:32:48.925Z,6.20
2019-03-13T23:35:18.121Z,6.20
2019-03-13T23:37:47.327Z,6.20
2019-03-13T23:40:16.620Z,6.10
2019-03-13T23:42:45.786Z,6.00
2019-03-13T23:45:15.042Z,5.90
2019-03-13T23:47:44.271Z,5.80
2019-03-13T23:50:14.467Z,5.80
2019-03-13T23:52:43.638Z,5.70
2019-03-13T23:55:12.928Z,5.60
2019-03-13T23:57:42.175Z,5.60
